createdAt,value
2023-03-15T14:08:02.869Z,94.50
2023-03-15T14:19:55.490Z,94.40
2023-03-15T14:36:25.219Z,96.00
2023-03-15T14:39:20.753Z,95.80
2023-03-15T14:42:11.565Z,94.60
2023-03-15T14:44:59.090Z,93.90
2023-03-15T14:51:17.833Z,86.10
2023-03-15T14:54:06.699Z,88.00
2023-03-15T14:56:54.837Z,88.70
2023-03-15T14:59:42.579Z,91.30
2023-03-15T15:02:35.711Z,91.30
2023-03-15T15:05:27.366Z,92.30
2023-03-15T15:08:18.562Z,92.60
2023-03-15T15:11:06.104Z,93.90
2023-03-15T15:13:54.301Z,93.50
2023-03-15T15:16:42.146Z,92.50
2023-03-15T15:19:30.058Z,91.60
2023-03-15T15:22:18.176Z,92.60
2023-03-15T15:25:15.518Z,93.40
2023-03-15T15:28:02.672Z,93.80
2023-03-15T15:30:52.779Z,92.90
2023-03-15T15:33:43.145Z,94.00
2023-03-15T15:36:33.241Z,93.10
2023-03-15T15:39:23.802Z,94.30
2023-03-15T15:42:12.979Z,95.00
2023-03-15T15:45:00.692Z,95.70
2023-03-15T15:47:48.875Z,94.80
2023-03-15T15:50:36.700Z,95.90
2023-03-15T15:53:24.108Z,96.10
2023-03-15T15:56:12.970Z,97.00
2023-03-15T15:59:03.136Z,95.70
2023-03-15T16:02:00.579Z,95.40
2023-03-15T16:04:48.503Z,95.50
2023-03-15T16:07:35.920Z,95.20
2023-03-15T16:10:26.372Z,95.00
2023-03-15T16:13:14.133Z,95.40
2023-03-15T16:16:02.993Z,96.00
2023-03-15T16:18:51.082Z,96.80
2023-03-15T16:21:42.138Z,96.60
2023-03-15T16:24:31.930Z,96.30
2023-03-15T16:27:23.447Z,96.00
2023-03-15T16:30:19.878Z,95.40
2023-03-15T16:33:14.404Z,96.00
2023-03-15T16:36:02.649Z,96.00
2023-03-15T16:38:50.965Z,96.70
2023-03-15T16:41:38.403Z,96.80
2023-03-15T16:44:27.149Z,96.80
2023-03-15T16:47:14.578Z,97.10
2023-03-15T16:50:03.846Z,99.00
2023-03-15T16:52:54.667Z,98.90
2023-03-15T16:55:42.890Z,99.90
2023-03-15T16:58:30.627Z,99.90
2023-03-15T17:01:18.349Z,99.90
2023-03-15T17:04:07.340Z,98.40
2023-03-15T17:06:57.743Z,99.50
2023-03-15T17:09:48.542Z,99.90
2023-03-15T17:12:36.924Z,99.90
2023-03-15T17:15:27.650Z,99.90
2023-03-15T17:18:20.334Z,99.90
2023-03-15T17:21:08.801Z,99.90
2023-03-15T17:23:58.567Z,99.90
2023-03-15T17:26:47.141Z,99.90
2023-03-15T17:29:35.582Z,99.90
2023-03-15T17:32:23.633Z,99.90
2023-03-15T17:35:12.832Z,99.90
2023-03-15T17:38:01.812Z,99.90
2023-03-15T17:40:51.444Z,99.90
2023-03-15T17:43:42.309Z,99.90
2023-03-15T17:46:30.350Z,99.90
2023-03-15T17:49:18.761Z,99.90
2023-03-15T17:52:15.281Z,99.90
2023-03-15T17:55:02.964Z,99.90
2023-03-15T17:57:55.452Z,99.90
2023-03-15T18:00:44.405Z,99.90
2023-03-15T18:03:33.819Z,99.90
2023-03-15T18:06:23.971Z,99.90
2023-03-15T18:09:15.204Z,99.90
2023-03-15T18:12:04.403Z,99.90
2023-03-15T18:14:53.476Z,99.90
2023-03-15T18:17:42.467Z,99.90
2023-03-15T18:20:29.938Z,99.90
2023-03-15T18:23:18.635Z,99.90
2023-03-15T18:26:06.469Z,99.90
2023-03-15T18:28:54.237Z,99.90
2023-03-15T18:31:44.463Z,99.90
2023-03-15T18:34:31.955Z,99.90
2023-03-15T18:37:18.965Z,99.90
2023-03-15T18:40:07.183Z,99.90
2023-03-15T18:42:55.182Z,99.90
2023-03-15T18:45:42.966Z,99.90
2023-03-15T18:48:40.490Z,99.90
2023-03-15T18:51:29.315Z,99.90
2023-03-15T18:54:16.322Z,99.90
2023-03-15T18:57:03.339Z,99.90
2023-03-15T18:59:50.969Z,99.90
2023-03-15T19:02:39.150Z,99.90
2023-03-15T19:05:28.968Z,99.90
2023-03-15T19:08:16.835Z,99.90
2023-03-15T19:11:06.128Z,99.90
2023-03-15T19:13:53.739Z,99.90
2023-03-15T19:16:41.845Z,99.90
2023-03-15T19:19:29.721Z,99.90
2023-03-15T19:22:18.468Z,99.90
2023-03-15T19:25:06.931Z,99.90
2023-03-15T19:27:54.587Z,99.90
2023-03-15T19:30:42.032Z,99.90
2023-03-15T19:33:29.003Z,99.90
2023-03-15T19:36:17.422Z,99.90
2023-03-15T19:39:07.233Z,99.90
2023-03-15T19:41:56.141Z,99.90
2023-03-15T19:44:46.078Z,99.90
2023-03-15T19:47:34.740Z,99.90
2023-03-15T19:50:22.360Z,99.90
2023-03-15T19:53:09.516Z,99.90
2023-03-15T19:55:58.174Z,99.90
2023-03-15T19:58:45.558Z,99.90
2023-03-15T20:01:33.383Z,99.90
2023-03-15T20:04:20.590Z,99.90
2023-03-15T20:07:11.119Z,99.90
2023-03-15T20:09:58.599Z,99.90
2023-03-15T20:12:48.337Z,99.90
2023-03-15T20:15:35.748Z,99.90
2023-03-15T20:18:22.702Z,99.90
2023-03-15T20:21:10.516Z,99.90
2023-03-15T20:23:57.971Z,99.90
2023-03-15T20:26:44.957Z,99.90
2023-03-15T20:29:34.088Z,99.90
2023-03-15T20:32:21.984Z,99.90
2023-03-15T20:35:10.997Z,99.90
2023-03-15T20:38:06.530Z,99.90
2023-03-15T20:40:55.910Z,99.90
2023-03-15T20:43:43.417Z,99.90
2023-03-15T20:46:31.777Z,99.90
2023-03-15T20:49:20.061Z,99.90
2023-03-15T20:52:07.359Z,99.90
2023-03-15T20:54:54.607Z,99.90
2023-03-15T20:57:43.326Z,99.90
2023-03-15T21:00:32.192Z,99.90
2023-03-15T21:03:22.087Z,99.90
2023-03-15T21:06:12.806Z,99.90
2023-03-15T21:09:02.515Z,99.90
2023-03-15T21:11:54.537Z,99.90
2023-03-15T21:15:03.220Z,99.90
2023-03-15T21:17:53.465Z,99.90
2023-03-15T21:20:47.119Z,99.90
2023-03-15T21:23:36.518Z,99.90
2023-03-15T21:26:24.251Z,99.90
2023-03-15T21:29:12.575Z,99.90
2023-03-15T21:32:01.854Z,99.90
2023-03-15T21:34:51.187Z,99.90
2023-03-15T21:37:44.066Z,99.90
2023-03-15T21:40:32.390Z,99.90
2023-03-15T21:43:24.062Z,99.90
2023-03-15T21:46:14.039Z,99.90
2023-03-15T21:49:04.267Z,99.90
2023-03-15T21:51:52.837Z,99.90
2023-03-15T21:54:42.219Z,99.90
2023-03-15T21:57:29.459Z,99.90
2023-03-15T22:00:20.265Z,99.90
2023-03-15T22:03:08.068Z,99.90
2023-03-15T22:05:55.801Z,99.90
2023-03-15T22:08:43.350Z,99.90
2023-03-15T22:11:31.795Z,99.90
2023-03-15T22:14:18.829Z,99.90
2023-03-15T22:17:06.119Z,99.90
2023-03-15T22:19:53.660Z,99.90
2023-03-15T22:22:41.109Z,99.90
2023-03-15T22:25:28.401Z,99.90
2023-03-15T22:28:17.718Z,99.90
2023-03-15T22:31:05.580Z,99.90
2023-03-15T22:33:53.146Z,99.90
2023-03-15T22:36:42.732Z,99.90
2023-03-15T22:39:30.198Z,99.90
2023-03-15T22:42:18.195Z,99.90
2023-03-15T22:45:08.893Z,99.90
2023-03-15T22:47:56.729Z,99.90
2023-03-15T22:50:44.464Z,99.90
2023-03-15T22:53:32.403Z,99.90
2023-03-15T22:56:20.176Z,99.90
2023-03-15T22:59:07.880Z,99.90
2023-03-15T23:01:57.295Z,99.90
2023-03-15T23:04:45.450Z,99.90
2023-03-15T23:07:32.513Z,99.90
2023-03-15T23:10:21.274Z,99.90
2023-03-15T23:13:09.533Z,99.90
2023-03-15T23:15:57.903Z,99.90
2023-03-15T23:18:48.755Z,99.90
2023-03-15T23:21:36.318Z,99.90
2023-03-15T23:24:27.728Z,99.90
2023-03-15T23:27:15.862Z,99.90
2023-03-15T23:30:04.412Z,99.90
2023-03-15T23:32:57.732Z,99.90
2023-03-15T23:35:47.820Z,99.90
2023-03-15T23:38:35.832Z,99.90
2023-03-15T23:41:23.545Z,99.90
2023-03-15T23:44:11.623Z,99.90
2023-03-15T23:46:59.471Z,99.90
2023-03-15T23:49:47.278Z,99.90
2023-03-15T23:52:36.125Z,99.90
2023-03-15T23:55:25.287Z,99.90
2023-03-15T23:58:12.301Z,99.90
